Time;durP1;ratioP1;P1;durP2;ratioP2;P2;SDS_P1;SDS_P2;PMS_P1;PMS_P2;Temp;Humidity;BMP_temperature;BMP_pressure;BME280_temperature;BME280_humidity;BME280_pressure;Samples;Min_cycle;Max_cycle;Signal;HPM_P1;HPM_P2
2021/10/11 00:01:52;;;;;;;;;;;23.00;45.30;;;;;;1547042;77;728;-57
2021/10/11 00:03:54;;;;;;;;;;;23.00;45.20;;;;;;1547848;76;1095;-56
2021/10/11 00:05:56;;;;;;;;;;;23.00;45.20;;;;;;1542480;77;1929;-56
2021/10/11 00:07:58;;;;;;;;;;;22.90;45.20;;;;;;1559840;75;756;-53
2021/10/11 00:10:00;;;;;;;;;;;23.00;45.20;;;;;;1578069;75;750;-53
2021/10/11 00:12:02;;;;;;;;;;;22.90;45.20;;;;;;1568627;75;682;-55
2021/10/11 00:14:04;;;;;;;;;;;22.90;45.20;;;;;;1553696;75;1166;-55
2021/10/11 00:16:06;;;;;;;;;;;22.90;45.30;;;;;;1567686;75;821;-57
2021/10/11 00:18:07;;;;;;;;;;;23.00;45.30;;;;;;1573872;75;770;-56
2021/10/11 00:20:10;;;;;;;;;;;23.00;45.30;;;;;;1546312;77;781;-57
2021/10/11 00:22:12;;;;;;;;;;;23.00;45.30;;;;;;1520336;77;703;-57
2021/10/11 00:24:13;;;;;;;;;;;22.90;45.30;;;;;;1554584;75;1173;-56
2021/10/11 00:26:15;;;;;;;;;;;22.90;45.40;;;;;;1563184;75;1927;-54
2021/10/11 00:28:17;;;;;;;;;;;22.90;45.50;;;;;;1563873;75;745;-55
2021/10/11 00:30:19;;;;;;;;;;;22.90;45.50;;;;;;1560097;75;733;-54
2021/10/11 00:32:21;;;;;;;;;;;22.90;45.50;;;;;;1552341;75;583;-57
2021/10/11 00:34:23;;;;;;;;;;;22.80;45.40;;;;;;1571012;75;1144;-56
2021/10/11 00:36:25;;;;;;;;;;;22.90;45.60;;;;;;1563155;75;775;-56
2021/10/11 00:38:27;;;;;;;;;;;22.90;45.70;;;;;;1558962;75;715;-56
2021/10/11 00:40:28;;;;;;;;;;;22.90;45.70;;;;;;1570893;75;702;-56
2021/10/11 00:42:30;;;;;;;;;;;22.90;45.70;;;;;;1550583;75;667;-55
2021/10/11 00:44:32;;;;;;;;;;;22.90;45.70;;;;;;1557635;75;1155;-53
2021/10/11 00:46:34;;;;;;;;;;;22.90;45.70;;;;;;1559897;75;1966;-54
2021/10/11 00:48:36;;;;;;;;;;;22.90;45.70;;;;;;1554630;75;814;-57
2021/10/11 00:50:38;;;;;;;;;;;22.90;45.70;;;;;;1564074;75;744;-55
2021/10/11 00:52:40;;;;;;;;;;;22.80;45.60;;;;;;1556888;75;717;-55
2021/10/11 00:54:42;;;;;;;;;;;22.90;45.70;;;;;;1564277;75;1179;-53
2021/10/11 00:56:43;;;;;;;;;;;22.80;45.50;;;;;;1534257;76;667;-55
2021/10/11 00:58:45;;;;;;;;;;;22.80;45.50;;;;;;1567911;75;644;-55
2021/10/11 01:00:47;;;;;;;;;;;22.80;45.50;;;;;;1559692;75;717;-53
2021/10/11 01:02:49;;;;;;;;;;;22.90;45.70;;;;;;1553017;75;1087;-56
2021/10/11 01:04:51;;;;;;;;;;;22.80;45.50;;;;;;1555991;75;1165;-55
2021/10/11 01:06:53;;;;;;;;;;;22.80;45.60;;;;;;1557138;75;1941;-56
2021/10/11 01:08:55;;;;;;;;;;;22.90;45.70;;;;;;1556899;75;712;-55
2021/10/11 01:10:57;;;;;;;;;;;22.90;45.70;;;;;;1561128;75;692;-55
2021/10/11 01:12:59;;;;;;;;;;;22.90;45.70;;;;;;1545560;73;220200;-75
2021/10/11 01:15:01;;;;;;;;;;;22.90;45.80;;;;;;1503582;77;731;-74
2021/10/11 01:17:02;;;;;;;;;;;22.90;45.90;;;;;;1502808;78;703;-75
2021/10/11 01:19:04;;;;;;;;;;;22.90;45.80;;;;;;1533186;77;727;-74
2021/10/11 01:21:06;;;;;;;;;;;22.80;45.70;;;;;;1536466;76;726;-76
2021/10/11 01:23:08;;;;;;;;;;;22.90;45.80;;;;;;1522568;76;1214;-75
2021/10/11 01:25:11;;;;;;;;;;;22.80;45.70;;;;;;1530144;77;786;-74
2021/10/11 01:27:15;;;;;;;;;;;22.80;45.70;;;;;;1527672;77;1952;-76
2021/10/11 01:29:17;;;;;;;;;;;22.90;45.80;;;;;;1536443;76;837;-75
2021/10/11 01:31:19;;;;;;;;;;;22.90;45.80;;;;;;1532633;77;749;-72
2021/10/11 01:33:21;;;;;;;;;;;22.80;45.60;;;;;;1531861;77;1156;-72
2021/10/11 01:35:23;;;;;;;;;;;22.80;45.60;;;;;;1532353;77;756;-76
2021/10/11 01:37:24;;;;;;;;;;;22.90;45.80;;;;;;1532173;76;762;-76
2021/10/11 01:39:26;;;;;;;;;;;22.80;45.70;;;;;;1531075;76;816;-76
2021/10/11 01:41:28;;;;;;;;;;;22.80;45.70;;;;;;1537037;76;729;-76
2021/10/11 01:43:30;;;;;;;;;;;22.90;45.70;;;;;;1532446;76;1055;-76
2021/10/11 01:45:32;;;;;;;;;;;22.90;45.70;;;;;;1532288;77;726;-75
2021/10/11 01:47:34;;;;;;;;;;;22.90;45.70;;;;;;1519603;77;1930;-75
2021/10/11 01:49:36;;;;;;;;;;;22.90;45.70;;;;;;1535671;77;743;-75
2021/10/11 01:51:38;;;;;;;;;;;22.90;45.70;;;;;;1532030;77;647;-75
2021/10/11 01:53:40;;;;;;;;;;;22.90;45.70;;;;;;1533810;77;1139;-74
2021/10/11 01:55:41;;;;;;;;;;;22.80;45.60;;;;;;1524546;76;817;-75
2021/10/11 01:57:43;;;;;;;;;;;22.90;45.70;;;;;;1544331;76;824;-75
2021/10/11 01:59:45;;;;;;;;;;;22.80;45.60;;;;;;1532323;77;663;-76
2021/10/11 02:01:47;;;;;;;;;;;22.80;45.60;;;;;;1532134;77;736;-72
2021/10/11 02:03:49;;;;;;;;;;;22.80;45.50;;;;;;1531299;77;1135;-75
2021/10/11 02:05:51;;;;;;;;;;;22.70;45.50;;;;;;1532695;77;1953;-75
2021/10/11 02:07:53;;;;;;;;;;;22.80;45.50;;;;;;1527146;77;740;-73
2021/10/11 02:09:55;;;;;;;;;;;22.70;45.50;;;;;;1532396;76;708;-72
2021/10/11 02:11:57;;;;;;;;;;;22.90;45.60;;;;;;1532425;77;814;-72
2021/10/11 02:13:59;;;;;;;;;;;22.80;45.50;;;;;;1527541;77;1085;-72
2021/10/11 02:16:00;;;;;;;;;;;22.80;45.50;;;;;;1533017;76;705;-72
2021/10/11 02:18:02;;;;;;;;;;;22.80;45.60;;;;;;1531794;77;663;-72
2021/10/11 02:20:05;;;;;;;;;;;22.80;45.60;;;;;;1532130;76;668;-72
2021/10/11 02:22:06;;;;;;;;;;;22.80;45.60;;;;;;1536120;76;1126;-72
2021/10/11 02:24:08;;;;;;;;;;;22.80;45.50;;;;;;1529350;76;782;-72
2021/10/11 02:26:10;;;;;;;;;;;22.80;45.50;;;;;;1534348;76;1952;-71
2021/10/11 02:28:12;;;;;;;;;;;22.80;45.50;;;;;;1520698;77;743;-72
2021/10/11 02:30:14;;;;;;;;;;;22.90;45.70;;;;;;1534352;76;745;-72
2021/10/11 02:32:16;;;;;;;;;;;22.90;45.60;;;;;;1541603;76;1176;-70
2021/10/11 02:34:18;;;;;;;;;;;22.80;45.40;;;;;;1533205;77;791;-72
2021/10/11 02:36:20;;;;;;;;;;;22.90;45.50;;;;;;1533060;77;797;-72
2021/10/11 02:38:22;;;;;;;;;;;22.90;45.40;;;;;;1533052;76;823;-72
2021/10/11 02:40:23;;;;;;;;;;;22.90;45.20;;;;;;1532552;76;792;-72
2021/10/11 02:42:25;;;;;;;;;;;23.00;45.10;;;;;;1532623;77;1146;-71
2021/10/11 02:44:27;;;;;;;;;;;23.10;45.10;;;;;;1533162;76;749;-72
2021/10/11 02:46:29;;;;;;;;;;;23.20;44.80;;;;;;1532059;76;1944;-71
2021/10/11 02:48:31;;;;;;;;;;;23.20;44.50;;;;;;1532429;77;727;-71
2021/10/11 02:50:33;;;;;;;;;;;23.20;44.30;;;;;;1532613;76;820;-74
2021/10/11 02:52:35;;;;;;;;;;;23.30;44.10;;;;;;1536261;77;1071;-73
2021/10/11 02:54:36;;;;;;;;;;;23.20;43.90;;;;;;1540931;76;720;-73
2021/10/11 02:56:38;;;;;;;;;;;23.20;44.20;;;;;;1527548;77;800;-74
2021/10/11 02:58:40;;;;;;;;;;;23.20;44.00;;;;;;1529803;76;692;-70
2021/10/11 03:00:42;;;;;;;;;;;23.30;43.60;;;;;;1532531;77;733;-69
2021/10/11 03:02:44;;;;;;;;;;;23.30;43.70;;;;;;1502387;78;1152;-71
2021/10/11 03:04:47;;;;;;;;;;;23.30;43.60;;;;;;1478351;80;738;-71
2021/10/11 03:06:49;;;;;;;;;;;23.20;43.40;;;;;;1503589;79;1923;-72
2021/10/11 03:08:51;;;;;;;;;;;23.20;43.50;;;;;;1474686;80;725;-73
2021/10/11 03:10:53;;;;;;;;;;;23.10;43.40;;;;;;1499830;77;751;-68
2021/10/11 03:12:55;;;;;;;;;;;23.10;43.40;;;;;;1503237;79;1088;-71
2021/10/11 03:14:57;;;;;;;;;;;23.00;43.20;;;;;;1499500;79;796;-72
2021/10/11 03:16:59;;;;;;;;;;;23.00;43.30;;;;;;1503023;79;722;-70
2021/10/11 03:19:01;;;;;;;;;;;23.00;43.40;;;;;;1502439;79;852;-73
2021/10/11 03:21:02;;;;;;;;;;;23.00;43.40;;;;;;1502887;79;770;-74
2021/10/11 03:23:04;;;;;;;;;;;23.00;43.40;;;;;;1503152;79;1180;-73
2021/10/11 03:25:06;;;;;;;;;;;23.00;43.50;;;;;;1503825;79;821;-72
2021/10/11 03:27:08;;;;;;;;;;;23.00;43.40;;;;;;1502105;79;1949;-71
2021/10/11 03:29:10;;;;;;;;;;;23.00;43.30;;;;;;1502483;77;754;-74
2021/10/11 03:31:12;;;;;;;;;;;22.90;43.30;;;;;;1504230;78;763;-73
2021/10/11 03:33:14;;;;;;;;;;;22.90;43.40;;;;;;1501999;79;1132;-70
2021/10/11 03:35:16;;;;;;;;;;;23.00;43.30;;;;;;1500314;79;802;-71
2021/10/11 03:37:18;;;;;;;;;;;22.90;43.10;;;;;;1502835;79;740;-72
2021/10/11 03:39:19;;;;;;;;;;;23.00;43.10;;;;;;1501943;79;822;-74
2021/10/11 03:41:21;;;;;;;;;;;23.00;43.30;;;;;;1502912;79;786;-73
2021/10/11 03:43:23;;;;;;;;;;;23.00;43.40;;;;;;1503133;79;1130;-73
2021/10/11 03:45:25;;;;;;;;;;;23.00;43.10;;;;;;1503384;79;681;-69
2021/10/11 03:47:27;;;;;;;;;;;23.00;43.10;;;;;;1502153;79;1946;-71
2021/10/11 03:49:29;;;;;;;;;;;22.90;43.10;;;;;;1502000;79;801;-71
2021/10/11 03:51:31;;;;;;;;;;;22.90;43.10;;;;;;1502922;79;925;-67
2021/10/11 03:53:33;;;;;;;;;;;23.00;43.10;;;;;;1500025;79;1132;-67
2021/10/11 03:55:35;;;;;;;;;;;22.90;43.00;;;;;;1503736;79;705;-71
2021/10/11 03:57:37;;;;;;;;;;;23.00;43.00;;;;;;1499681;79;782;-70
2021/10/11 03:59:38;;;;;;;;;;;23.00;42.90;;;;;;1498539;79;738;-71
2021/10/11 04:01:40;;;;;;;;;;;23.10;42.90;;;;;;1500494;77;781;-74
2021/10/11 04:03:42;;;;;;;;;;;23.10;42.80;;;;;;1501999;78;1085;-71
2021/10/11 04:05:44;;;;;;;;;;;23.20;42.60;;;;;;1502090;79;729;-71
2021/10/11 04:07:50;;;;;;;;;;;23.30;42.40;;;;;;1501646;79;1957;-72
2021/10/11 04:09:50;;;;;;;;;;;23.30;42.20;;;;;;1503451;79;1596;-72
2021/10/11 04:11:53;;;;;;;;;;;23.50;42.10;;;;;;1498919;79;727;-72
2021/10/11 04:13:55;;;;;;;;;;;23.60;41.90;;;;;;1502866;79;1108;-74
2021/10/11 04:15:57;;;;;;;;;;;23.60;41.70;;;;;;1501995;79;719;-73
2021/10/11 04:17:59;;;;;;;;;;;23.60;41.70;;;;;;1501772;79;792;-72
2021/10/11 04:20:01;;;;;;;;;;;23.60;41.60;;;;;;1503741;79;744;-72
2021/10/11 04:22:03;;;;;;;;;;;23.60;41.50;;;;;;1502085;79;650;-72
2021/10/11 04:24:04;;;;;;;;;;;23.60;41.50;;;;;;1501981;79;1149;-73
2021/10/11 04:26:06;;;;;;;;;;;23.60;41.60;;;;;;1501570;79;780;-71
2021/10/11 04:28:11;;;;;;;;;;;23.60;41.50;;;;;;1501030;78;1941;-72
2021/10/11 04:30:12;;;;;;;;;;;23.60;41.60;;;;;;1502551;79;1680;-71
2021/10/11 04:32:14;;;;;;;;;;;23.60;41.50;;;;;;1506738;77;1146;-69
2021/10/11 04:34:15;;;;;;;;;;;23.60;41.50;;;;;;1502757;79;718;-69
2021/10/11 04:36:19;;;;;;;;;;;23.60;41.50;;;;;;1503082;79;787;-72
2021/10/11 04:38:21;;;;;;;;;;;23.60;41.40;;;;;;1503145;79;715;-72
2021/10/11 04:40:22;;;;;;;;;;;23.60;41.40;;;;;;1502429;79;756;-72
2021/10/11 04:42:24;;;;;;;;;;;23.70;41.40;;;;;;1503464;79;1152;-71
2021/10/11 04:44:27;;;;;;;;;;;23.60;41.30;;;;;;1502293;79;740;-69
2021/10/11 04:46:29;;;;;;;;;;;23.70;41.30;;;;;;1503967;79;1071;-76
2021/10/11 04:48:31;;;;;;;;;;;23.60;41.10;;;;;;1502031;79;1945;-70
2021/10/11 04:50:33;;;;;;;;;;;23.70;41.20;;;;;;1503284;77;777;-72
2021/10/11 04:52:35;;;;;;;;;;;23.70;41.10;;;;;;1503077;79;1161;-70
2021/10/11 04:54:36;;;;;;;;;;;23.70;41.10;;;;;;1503249;79;795;-71
2021/10/11 04:56:38;;;;;;;;;;;23.70;41.10;;;;;;1503416;79;786;-72
2021/10/11 04:58:40;;;;;;;;;;;23.60;41.00;;;;;;1502737;79;780;-72
2021/10/11 05:00:42;;;;;;;;;;;23.60;41.00;;;;;;1503600;77;599;-72
2021/10/11 05:02:44;;;;;;;;;;;23.70;41.30;;;;;;1502767;77;1157;-75
2021/10/11 05:04:46;;;;;;;;;;;23.70;41.10;;;;;;1502307;79;736;-70
2021/10/11 05:06:48;;;;;;;;;;;23.60;41.00;;;;;;1503960;79;764;-70
2021/10/11 05:08:50;;;;;;;;;;;23.60;41.00;;;;;;1503093;79;1957;-68
2021/10/11 05:10:51;;;;;;;;;;;23.50;41.30;;;;;;1503608;79;803;-72
2021/10/11 05:12:54;;;;;;;;;;;23.50;41.50;;;;;;1503040;79;1085;-72
2021/10/11 05:14:55;;;;;;;;;;;23.50;41.60;;;;;;1501157;79;792;-72
2021/10/11 05:16:57;;;;;;;;;;;23.50;41.70;;;;;;1501982;77;769;-71
2021/10/11 05:19:00;;;;;;;;;;;23.50;41.50;;;;;;1503898;79;759;-71
2021/10/11 05:21:02;;;;;;;;;;;23.40;41.40;;;;;;1503360;79;668;-73
2021/10/11 05:23:04;;;;;;;;;;;23.40;41.50;;;;;;1498972;77;1240;-74
2021/10/11 05:25:07;;;;;;;;;;;23.40;41.50;;;;;;1501273;78;736;-69
2021/10/11 05:27:08;;;;;;;;;;;23.40;41.30;;;;;;1500841;77;1937;-69
2021/10/11 05:29:10;;;;;;;;;;;23.40;41.20;;;;;;1502872;78;743;-73
2021/10/11 05:31:12;;;;;;;;;;;23.40;41.20;;;;;;1508623;78;786;-71
2021/10/11 05:33:14;;;;;;;;;;;23.50;41.40;;;;;;1492668;77;1154;-72
2021/10/11 05:35:16;;;;;;;;;;;23.50;41.30;;;;;;1503747;77;670;-72
2021/10/11 05:37:18;;;;;;;;;;;23.40;41.30;;;;;;1502999;79;726;-73
2021/10/11 05:39:20;;;;;;;;;;;23.40;41.30;;;;;;1503577;78;817;-71
2021/10/11 05:41:22;;;;;;;;;;;23.30;41.30;;;;;;1504007;77;791;-72
2021/10/11 05:43:24;;;;;;;;;;;23.40;41.30;;;;;;1503689;78;1199;-73
2021/10/11 05:45:25;;;;;;;;;;;23.30;41.30;;;;;;1500552;78;710;-71
2021/10/11 05:47:27;;;;;;;;;;;23.20;41.20;;;;;;1502567;79;1945;-72
2021/10/11 05:49:29;;;;;;;;;;;23.30;41.30;;;;;;1494748;78;691;-73
2021/10/11 05:51:31;;;;;;;;;;;23.20;41.20;;;;;;1498827;78;770;-75
2021/10/11 05:53:33;;;;;;;;;;;23.20;41.30;;;;;;1501202;79;1202;-73
2021/10/11 05:55:35;;;;;;;;;;;23.20;41.30;;;;;;1503434;79;746;-71
2021/10/11 05:57:37;;;;;;;;;;;23.20;41.30;;;;;;1503794;79;720;-73
2021/10/11 05:59:39;;;;;;;;;;;23.10;41.30;;;;;;1500766;79;790;-72
2021/10/11 06:01:40;;;;;;;;;;;23.20;41.40;;;;;;1500323;78;846;-72
2021/10/11 06:03:42;;;;;;;;;;;23.10;41.40;;;;;;1503331;79;1136;-73
2021/10/11 06:05:44;;;;;;;;;;;23.20;41.50;;;;;;1500518;77;645;-73
2021/10/11 06:07:46;;;;;;;;;;;23.10;41.50;;;;;;1502599;77;1933;-75
2021/10/11 06:09:48;;;;;;;;;;;23.10;41.50;;;;;;1501760;77;742;-73
2021/10/11 06:11:50;;;;;;;;;;;23.10;41.50;;;;;;1500788;78;795;-67
2021/10/11 06:13:52;;;;;;;;;;;23.10;41.50;;;;;;1503040;77;1129;-71
2021/10/11 06:15:53;;;;;;;;;;;23.10;40.20;;;;;;1504009;77;791;-70
2021/10/11 06:17:55;;;;;;;;;;;23.10;38.90;;;;;;1503202;77;819;-71
2021/10/11 06:19:57;;;;;;;;;;;23.00;37.90;;;;;;1503141;77;859;-72
2021/10/11 06:21:59;;;;;;;;;;;23.00;37.30;;;;;;1504129;77;699;-73
2021/10/11 06:24:01;;;;;;;;;;;22.90;36.70;;;;;;1503480;77;1081;-73
2021/10/11 06:26:03;;;;;;;;;;;22.90;36.10;;;;;;1502361;77;901;-74
2021/10/11 06:28:05;;;;;;;;;;;22.80;35.60;;;;;;1502248;77;1949;-72
2021/10/11 06:30:07;;;;;;;;;;;22.80;35.50;;;;;;1503320;77;765;-74
2021/10/11 06:32:09;;;;;;;;;;;22.70;35.50;;;;;;1502457;77;1160;-70
2021/10/11 06:34:11;;;;;;;;;;;22.60;35.10;;;;;;1503722;77;722;-73
2021/10/11 06:36:13;;;;;;;;;;;22.50;34.80;;;;;;1503510;77;735;-73
2021/10/11 06:38:14;;;;;;;;;;;22.50;34.80;;;;;;1501163;77;745;-68
2021/10/11 06:40:16;;;;;;;;;;;22.50;34.60;;;;;;1501704;77;704;-74
2021/10/11 06:42:18;;;;;;;;;;;22.40;34.70;;;;;;1503208;77;1156;-73
2021/10/11 06:44:20;;;;;;;;;;;22.40;35.20;;;;;;1503468;77;775;-75
2021/10/11 06:46:23;;;;;;;;;;;22.40;36.40;;;;;;1503874;77;731;-71
2021/10/11 06:48:25;;;;;;;;;;;22.40;36.80;;;;;;1503628;77;1914;-75
2021/10/11 06:50:26;;;;;;;;;;;22.40;37.20;;;;;;1502290;77;622;-76
2021/10/11 06:52:28;;;;;;;;;;;22.50;37.50;;;;;;1504050;77;1238;-74
2021/10/11 06:54:31;;;;;;;;;;;22.50;37.70;;;;;;1503931;77;787;-73
2021/10/11 06:56:32;;;;;;;;;;;22.60;37.80;;;;;;1501824;77;721;-75
2021/10/11 06:58:34;;;;;;;;;;;22.50;38.00;;;;;;1504074;77;795;-73
2021/10/11 07:00:37;;;;;;;;;;;22.50;38.20;;;;;;1502689;77;751;-74
2021/10/11 07:02:39;;;;;;;;;;;22.50;38.40;;;;;;1500693;77;1134;-74
2021/10/11 07:04:40;;;;;;;;;;;22.50;38.50;;;;;;1502694;77;795;-73
2021/10/11 07:06:42;;;;;;;;;;;22.50;38.60;;;;;;1502184;77;831;-74
2021/10/11 07:08:44;;;;;;;;;;;22.50;38.70;;;;;;1503408;77;1934;-73
2021/10/11 07:10:46;;;;;;;;;;;22.50;38.80;;;;;;1502269;77;684;-73
2021/10/11 07:12:48;;;;;;;;;;;22.50;38.80;;;;;;1502889;77;1159;-71
2021/10/11 07:14:50;;;;;;;;;;;22.60;38.90;;;;;;1501823;77;732;-72
2021/10/11 07:16:52;;;;;;;;;;;22.50;39.10;;;;;;1502805;77;796;-74
2021/10/11 07:18:54;;;;;;;;;;;22.50;39.20;;;;;;1502653;77;758;-71
2021/10/11 07:20:56;;;;;;;;;;;22.50;39.40;;;;;;1498274;77;774;-72
2021/10/11 07:22:58;;;;;;;;;;;22.50;39.40;;;;;;1499636;77;1215;-73
2021/10/11 07:24:59;;;;;;;;;;;22.50;39.40;;;;;;1503346;77;682;-74
2021/10/11 07:27:01;;;;;;;;;;;22.60;39.50;;;;;;1500669;77;680;-75
2021/10/11 07:29:03;;;;;;;;;;;22.50;39.60;;;;;;1502352;77;1960;-74
2021/10/11 07:31:05;;;;;;;;;;;22.60;39.60;;;;;;1507201;77;817;-73
2021/10/11 07:33:07;;;;;;;;;;;22.60;39.70;;;;;;1503484;77;1144;-74
2021/10/11 07:35:09;;;;;;;;;;;22.60;39.80;;;;;;1502456;77;864;-72
2021/10/11 07:37:11;;;;;;;;;;;22.50;39.80;;;;;;1503882;77;764;-72
2021/10/11 07:39:13;;;;;;;;;;;22.60;39.80;;;;;;1503929;77;801;-71
2021/10/11 07:41:14;;;;;;;;;;;22.60;39.80;;;;;;1503436;77;730;-71
2021/10/11 07:43:16;;;;;;;;;;;22.60;39.90;;;;;;1499517;77;1185;-73
2021/10/11 07:45:18;;;;;;;;;;;22.60;39.90;;;;;;1500211;77;717;-70
2021/10/11 07:47:20;;;;;;;;;;;22.60;40.00;;;;;;1503601;77;726;-70
2021/10/11 07:49:22;;;;;;;;;;;22.50;40.10;;;;;;1503812;77;1937;-72
2021/10/11 07:51:24;;;;;;;;;;;22.60;40.20;;;;;;1569403;72;223606;-68
2021/10/11 07:53:26;;;;;;;;;;;22.70;40.40;;;;;;1570796;74;764;-67
2021/10/11 07:55:28;;;;;;;;;;;22.70;40.40;;;;;;1587707;74;761;-68
2021/10/11 07:57:33;;;;;;;;;;;22.80;40.50;;;;;;1565172;74;712;-68
2021/10/11 07:59:33;;;;;;;;;;;22.80;40.50;;;;;;1566842;74;1827;-67
2021/10/11 08:01:35;;;;;;;;;;;22.80;40.50;;;;;;1560213;76;1162;-68
2021/10/11 08:03:37;;;;;;;;;;;22.80;40.50;;;;;;1564105;74;816;-68
2021/10/11 08:05:39;;;;;;;;;;;22.80;40.50;;;;;;1547814;76;702;-68
2021/10/11 08:07:41;;;;;;;;;;;22.90;40.70;;;;;;1576366;74;784;-70
2021/10/11 08:09:43;;;;;;;;;;;23.00;40.60;;;;;;1577841;74;1915;-69
2021/10/11 08:11:46;;;;;;;;;;;22.90;40.60;;;;;;1576487;74;726;-67
2021/10/11 08:13:48;;;;;;;;;;;23.00;40.50;;;;;;1609081;73;696;-68
2021/10/11 08:15:50;;;;;;;;;;;23.10;40.50;;;;;;1610275;73;877;-69
2021/10/11 08:17:52;;;;;;;;;;;23.10;40.50;;;;;;1611469;73;783;-70
2021/10/11 08:19:54;;;;;;;;;;;23.10;40.50;;;;;;1615270;73;1134;-74
2021/10/11 08:21:56;;;;;;;;;;;23.10;40.40;;;;;;1615991;73;722;-68
2021/10/11 08:23:59;;;;;;;;;;;23.10;40.40;;;;;;1608031;73;713;-67
2021/10/11 08:26:01;;;;;;;;;;;23.10;40.40;;;;;;1609164;73;720;-68
2021/10/11 08:28:03;;;;;;;;;;;23.10;40.30;;;;;;1608216;73;967;-68
2021/10/11 08:30:05;;;;;;;;;;;23.10;40.30;;;;;;1609236;73;1918;-70
2021/10/11 08:32:07;;;;;;;;;;;23.20;40.30;;;;;;1616161;73;687;-71
2021/10/11 08:34:09;;;;;;;;;;;23.20;40.30;;;;;;1613438;73;755;-68
2021/10/11 08:36:14;;;;;;;;;;;23.20;40.20;;;;;;1609886;73;824;-70
2021/10/11 08:38:16;;;;;;;;;;;23.20;40.30;;;;;;1610218;73;773;-67
2021/10/11 08:40:19;;;;;;;;;;;23.20;40.20;;;;;;1612477;73;1150;-68
2021/10/11 08:42:21;;;;;;;;;;;23.20;40.20;;;;;;1608866;73;702;-67
2021/10/11 08:44:23;;;;;;;;;;;23.30;40.20;;;;;;1616679;73;770;-69
2021/10/11 08:46:25;;;;;;;;;;;23.30;40.20;;;;;;1610680;73;718;-69
2021/10/11 08:48:27;;;;;;;;;;;23.30;40.20;;;;;;1607419;73;1924;-68
2021/10/11 08:50:29;;;;;;;;;;;23.30;40.20;;;;;;1608421;73;1140;-67
2021/10/11 08:52:31;;;;;;;;;;;23.30;40.20;;;;;;1606513;73;703;-68
2021/10/11 08:54:33;;;;;;;;;;;23.30;40.20;;;;;;1602539;73;697;-71
2021/10/11 08:56:35;;;;;;;;;;;23.30;40.10;;;;;;1577277;74;1193;-66
2021/10/11 08:58:43;;;;;;;;;;;23.30;40.20;;;;;;1603589;73;722;-68
2021/10/11 09:00:45;;;;;;;;;;;23.30;40.10;;;;;;1604872;73;1095;-67
2021/10/11 09:02:54;;;;;;;;;;;23.40;40.10;;;;;;1612537;73;735;-67
2021/10/11 09:04:56;;;;;;;;;;;23.40;40.10;;;;;;1608984;73;754;-67
2021/10/11 09:07:03;;;;;;;;;;;23.40;40.00;;;;;;1617501;72;745;-67
2021/10/11 09:09:06;;;;;;;;;;;23.40;40.10;;;;;;1606616;72;1920;-67
2021/10/11 09:11:09;;;;;;;;;;;23.40;40.10;;;;;;1607614;73;1153;-67
2021/10/11 09:13:11;;;;;;;;;;;23.40;40.10;;;;;;1617417;73;742;-70
2021/10/11 09:15:13;;;;;;;;;;;23.40;40.00;;;;;;1612033;73;760;-68
2021/10/11 09:17:22;;;;;;;;;;;23.40;40.00;;;;;;1604623;73;711;-70
2021/10/11 09:19:29;;;;;;;;;;;23.40;40.00;;;;;;1605782;73;776;-66
2021/10/11 09:21:31;;;;;;;;;;;23.50;40.10;;;;;;1596036;73;1150;-65
2021/10/11 09:23:33;;;;;;;;;;;23.50;40.10;;;;;;1609868;73;1782;-67
2021/10/11 09:25:41;;;;;;;;;;;23.50;40.10;;;;;;1610407;73;796;-67
2021/10/11 09:27:46;;;;;;;;;;;23.50;40.10;;;;;;1609036;73;756;-68
2021/10/11 09:29:48;;;;;;;;;;;23.50;40.10;;;;;;1600966;73;1947;-71
2021/10/11 09:31:50;;;;;;;;;;;23.50;40.00;;;;;;1594497;73;791;-68
2021/10/11 09:33:53;;;;;;;;;;;23.50;40.10;;;;;;1604183;73;753;-67
2021/10/11 09:35:55;;;;;;;;;;;23.50;40.00;;;;;;1604379;72;1133;-70
2021/10/11 09:37:57;;;;;;;;;;;23.50;40.00;;;;;;1607818;73;696;-68
2021/10/11 09:40:00;;;;;;;;;;;23.50;40.00;;;;;;1616153;73;1087;-69
2021/10/11 09:42:03;;;;;;;;;;;23.50;40.00;;;;;;1614511;73;824;-69
2021/10/11 09:44:11;;;;;;;;;;;23.50;40.00;;;;;;1615154;72;708;-64
2021/10/11 09:46:14;;;;;;;;;;;23.50;40.00;;;;;;1606720;72;760;-71
2021/10/11 09:48:16;;;;;;;;;;;23.50;40.00;;;;;;1592873;73;857;-67
2021/10/11 09:50:18;;;;;;;;;;;23.50;40.00;;;;;;1605317;73;1946;-68
2021/10/11 09:52:20;;;;;;;;;;;23.50;40.00;;;;;;1615543;72;825;-68
2021/10/11 09:54:22;;;;;;;;;;;23.50;40.00;;;;;;1615818;73;804;-72
2021/10/11 09:56:26;;;;;;;;;;;23.50;40.00;;;;;;1603701;73;745;-72
2021/10/11 09:58:27;;;;;;;;;;;23.50;40.00;;;;;;1604025;73;1066;-69
2021/10/11 10:00:29;;;;;;;;;;;23.50;40.10;;;;;;1610510;73;1189;-68
2021/10/11 10:02:31;;;;;;;;;;;23.50;40.00;;;;;;1612742;73;783;-68
2021/10/11 10:04:35;;;;;;;;;;;23.50;40.00;;;;;;1615075;73;763;-69
2021/10/11 10:06:37;;;;;;;;;;;23.50;40.00;;;;;;1602152;73;718;-68
2021/10/11 10:08:39;;;;;;;;;;;23.50;40.00;;;;;;1600735;73;685;-69
2021/10/11 10:10:41;;;;;;;;;;;23.50;40.00;;;;;;1602347;73;1902;-70
2021/10/11 10:12:43;;;;;;;;;;;23.50;40.00;;;;;;1604344;73;793;-73
2021/10/11 10:14:47;;;;;;;;;;;23.40;39.90;;;;;;1616690;72;714;-68
2021/10/11 10:16:49;;;;;;;;;;;23.50;40.00;;;;;;1607959;72;1979;-71
2021/10/11 10:18:51;;;;;;;;;;;23.50;40.00;;;;;;1605276;72;718;-70
2021/10/11 10:20:55;;;;;;;;;;;23.50;40.00;;;;;;1601281;73;1182;-71
2021/10/11 10:22:57;;;;;;;;;;;23.40;40.00;;;;;;1614716;72;1072;-68
2021/10/11 10:25:06;;;;;;;;;;;23.40;40.00;;;;;;1617118;73;657;-69
2021/10/11 10:27:08;;;;;;;;;;;23.40;40.00;;;;;;1598264;72;676;-72
2021/10/11 10:29:13;;;;;;;;;;;23.40;40.00;;;;;;1614181;73;1940;-70
2021/10/11 10:31:28;;;;;;;;;;;23.40;40.00;;;;;;1603570;73;1139;-71
2021/10/11 10:33:34;;;;;;;;;;;23.40;40.00;;;;;;1613443;73;771;-68
2021/10/11 10:35:37;;;;;;;;;;;23.40;40.00;;;;;;1597905;73;777;-68
2021/10/11 10:37:39;;;;;;;;;;;23.30;40.00;;;;;;1603793;73;1465;-68
2021/10/11 10:39:45;;;;;;;;;;;23.30;40.00;;;;;;1600650;73;699;-69
2021/10/11 10:41:48;;;;;;;;;;;23.20;40.00;;;;;;1600758;73;714;-72
2021/10/11 10:43:50;;;;;;;;;;;23.40;40.00;;;;;;1607086;73;1005;-68
2021/10/11 10:45:53;;;;;;;;;;;23.30;40.00;;;;;;1617901;73;717;-68
2021/10/11 10:47:55;;;;;;;;;;;23.40;40.00;;;;;;1614210;73;741;-71
2021/10/11 10:49:57;;;;;;;;;;;23.30;40.00;;;;;;1617667;73;1928;-69
2021/10/11 10:51:59;;;;;;;;;;;23.30;40.00;;;;;;1609015;72;790;-71
2021/10/11 10:54:01;;;;;;;;;;;23.30;40.00;;;;;;1615481;73;930;-70
2021/10/11 10:56:05;;;;;;;;;;;23.30;40.00;;;;;;1605552;72;726;-70
2021/10/11 10:58:08;;;;;;;;;;;23.30;40.00;;;;;;1616876;72;712;-67
2021/10/11 11:00:16;;;;;;;;;;;23.30;40.00;;;;;;1612971;72;1171;-69
2021/10/11 11:02:18;;;;;;;;;;;23.30;40.00;;;;;;1616557;73;1674;-73
2021/10/11 11:04:23;;;;;;;;;;;23.30;40.00;;;;;;1613026;73;790;-71
2021/10/11 11:06:27;;;;;;;;;;;23.40;40.10;;;;;;1595931;73;1686;-72
2021/10/11 11:08:29;;;;;;;;;;;23.30;40.10;;;;;;1616266;73;736;-72
2021/10/11 11:10:31;;;;;;;;;;;23.40;40.00;;;;;;1616190;73;1965;-72
2021/10/11 11:12:34;;;;;;;;;;;23.30;39.90;;;;;;1608713;73;679;-72
2021/10/11 11:14:36;;;;;;;;;;;23.30;40.00;;;;;;1603504;72;724;-72
2021/10/11 11:16:38;;;;;;;;;;;23.30;40.10;;;;;;1599715;73;760;-71
2021/10/11 11:18:40;;;;;;;;;;;23.30;40.00;;;;;;1613826;73;716;-71
2021/10/11 11:20:42;;;;;;;;;;;23.20;40.00;;;;;;1598464;73;1108;-72
2021/10/11 11:22:44;;;;;;;;;;;23.20;40.00;;;;;;1610188;73;804;-72
2021/10/11 11:24:50;;;;;;;;;;;23.20;40.00;;;;;;1619132;73;750;-72
2021/10/11 11:26:52;;;;;;;;;;;23.20;40.00;;;;;;1617472;72;1417;-72
2021/10/11 11:28:55;;;;;;;;;;;23.20;40.00;;;;;;1607394;73;691;-71
2021/10/11 11:31:04;;;;;;;;;;;23.20;40.10;;;;;;1614312;73;1948;-72
2021/10/11 11:33:06;;;;;;;;;;;23.20;40.10;;;;;;1617619;73;812;-71
2021/10/11 11:35:10;;;;;;;;;;;23.20;40.10;;;;;;1614066;73;746;-68
2021/10/11 11:37:12;;;;;;;;;;;23.20;40.20;;;;;;1611399;72;1998;-72
2021/10/11 11:39:14;;;;;;;;;;;23.20;40.40;;;;;;1612752;73;798;-68
2021/10/11 11:41:16;;;;;;;;;;;23.20;40.50;;;;;;1607928;73;1119;-68
2021/10/11 11:43:17;;;;;;;;;;;23.20;40.50;;;;;;1610149;73;740;-73
2021/10/11 11:45:20;;;;;;;;;;;23.20;40.60;;;;;;1615554;73;787;-68
2021/10/11 11:47:24;;;;;;;;;;;23.10;40.70;;;;;;1600977;73;796;-68
2021/10/11 11:49:25;;;;;;;;;;;23.20;40.70;;;;;;1613648;72;1949;-70
2021/10/11 11:51:27;;;;;;;;;;;23.20;40.80;;;;;;1612186;72;1106;-72
2021/10/11 11:53:31;;;;;;;;;;;23.10;40.70;;;;;;1630140;72;781;-69
2021/10/11 11:55:33;;;;;;;;;;;23.10;40.40;;;;;;1621514;73;803;-68
2021/10/11 11:57:42;;;;;;;;;;;23.00;40.10;;;;;;1622558;71;820;-68
2021/10/11 11:59:45;;;;;;;;;;;23.10;40.20;;;;;;1625753;73;1202;-68
2021/10/11 12:01:46;;;;;;;;;;;23.00;40.00;;;;;;1624735;73;784;-69
2021/10/11 12:03:49;;;;;;;;;;;23.10;40.10;;;;;;1630702;73;882;-68
2021/10/11 12:05:52;;;;;;;;;;;23.00;39.90;;;;;;1628076;73;755;-80
2021/10/11 12:07:55;;;;;;;;;;;23.00;39.90;;;;;;1615672;73;798;-72
2021/10/11 12:09:57;;;;;;;;;;;23.00;39.90;;;;;;1632175;73;1908;-68